Time;durP1;ratioP1;P1;durP2;ratioP2;P2;SDS_P1;SDS_P2;PMS_P1;PMS_P2;Temp;Humidity;BMP_temperature;BMP_pressure;BME280_temperature;BME280_humidity;BME280_pressure;Samples;Min_cycle;Max_cycle;Signal;HPM_P1;HPM_P2
2021/10/08 00:02:25;;;;;;;75.90;20.25;;;;;;;10.73;77.95;101723.75;5095321;28;20126;-61
2021/10/08 00:04:52;;;;;;;58.40;18.85;;;;;;;10.73;77.96;101726.53;5095024;28;20056;-62
2021/10/08 00:07:22;;;;;;;48.08;17.80;;;;;;;10.76;78.07;101720.41;5094701;28;20075;-61
2021/10/08 00:09:49;;;;;;;50.38;17.02;;;;;;;10.76;77.77;101720.41;5105902;28;20051;-61
2021/10/08 00:12:18;;;;;;;46.45;17.77;;;;;;;10.74;77.82;101722.66;5111848;28;20048;-62
2021/10/08 00:14:46;;;;;;;64.20;19.38;;;;;;;10.78;77.85;101726.53;5094655;28;20056;-61
2021/10/08 00:17:13;;;;;;;75.28;20.23;;;;;;;10.80;77.80;101724.28;5094942;28;20052;-61
2021/10/08 00:19:40;;;;;;;52.90;18.75;;;;;;;10.86;77.86;101722.31;5094808;28;20516;-62
2021/10/08 00:22:08;;;;;;;59.22;17.50;;;;;;;10.86;77.41;101722.31;5094412;28;20060;-61
2021/10/08 00:24:35;;;;;;;65.20;18.98;;;;;;;10.85;77.15;101729.84;5106751;28;20058;-61
2021/10/08 00:27:03;;;;;;;123.45;24.80;;;;;;;10.81;77.10;101730.69;5115007;28;20070;-61
2021/10/08 00:29:31;;;;;;;86.80;20.88;;;;;;;10.73;76.98;101727.38;5113477;28;20066;-60
2021/10/08 00:31:59;;;;;;;101.70;21.52;;;;;;;10.69;77.04;101725.47;5115030;28;20497;-61
2021/10/08 00:34:26;;;;;;;82.15;21.33;;;;;;;10.67;77.32;101722.94;5114490;28;20047;-61
2021/10/08 00:36:53;;;;;;;73.18;20.92;;;;;;;10.68;77.12;101732.97;5114553;28;20414;-62
2021/10/08 00:39:21;;;;;;;107.80;22.58;;;;;;;10.71;77.19;101729.63;5103363;28;20078;-62
2021/10/08 00:41:48;;;;;;;143.82;24.70;;;;;;;10.71;77.23;101717.66;5100683;28;20077;-61
2021/10/08 00:44:15;;;;;;;95.45;18.63;;;;;;;10.70;77.15;101733.50;5094576;28;20048;-61
2021/10/08 00:46:44;;;;;;;79.30;17.42;;;;;;;10.69;77.01;101725.47;5094751;28;20441;-61
2021/10/08 00:49:12;;;;;;;82.00;19.63;;;;;;;10.63;77.43;101732.16;5094839;28;20059;-62
2021/10/08 00:51:40;;;;;;;69.13;18.52;;;;;;;10.64;77.53;101733.81;5094364;28;20059;-61
2021/10/08 00:54:09;;;;;;;73.47;18.10;;;;;;;10.62;77.28;101733.28;5093672;28;20058;-62
2021/10/08 00:56:39;;;;;;;68.70;18.27;;;;;;;10.58;76.91;101724.63;5104834;28;20427;-62
2021/10/08 00:59:07;;;;;;;123.93;23.85;;;;;;;10.56;76.80;101721.31;5114745;28;20179;-61
2021/10/08 01:01:35;;;;;;;104.07;22.67;;;;;;;10.53;76.37;101731.06;5114193;28;20066;-61
2021/10/08 01:04:06;;;;;;;60.50;18.00;;;;;;;10.52;76.90;101728.56;5114519;28;20058;-61
2021/10/08 01:06:33;;;;;;;91.85;20.20;;;;;;;10.54;76.61;101737.47;5114042;28;20082;-62
2021/10/08 01:09:00;;;;;;;45.50;15.40;;;;;;;10.50;76.47;101730.81;5114241;28;20052;-62
2021/10/08 01:11:28;;;;;;;73.22;18.23;;;;;;;10.47;76.30;101729.41;5111986;28;20066;-61
2021/10/08 01:13:56;;;;;;;93.88;20.13;;;;;;;10.40;76.45;101726.09;5114668;28;20409;-62
2021/10/08 01:16:24;;;;;;;91.45;18.20;;;;;;;10.43;76.42;101736.66;5113924;28;20060;-62
2021/10/08 01:18:52;;;;;;;75.13;17.63;;;;;;;10.44;76.37;101726.38;5114239;28;20055;-61
2021/10/08 01:21:21;;;;;;;70.40;16.55;;;;;;;10.39;76.37;101735.56;5114413;28;20052;-61
2021/10/08 01:23:48;;;;;;;34.83;15.37;;;;;;;10.35;76.59;101734.44;5110875;28;20059;-61
2021/10/08 01:26:18;;;;;;;82.43;16.05;;;;;;;10.37;76.16;101729.44;5093590;28;20504;-62
2021/10/08 01:28:46;;;;;;;38.25;13.50;;;;;;;10.39;76.28;101732.78;5093499;28;20060;-62
2021/10/08 01:31:13;;;;;;;149.23;19.30;;;;;;;10.39;76.27;101737.50;5093349;28;20414;-61
2021/10/08 01:33:41;;;;;;;87.78;17.95;;;;;;;10.40;76.32;101734.47;5093073;28;20514;-61
2021/10/08 01:36:08;;;;;;;69.65;16.00;;;;;;;10.42;76.11;101732.22;5093259;28;20052;-61
2021/10/08 01:38:37;;;;;;;55.70;16.35;;;;;;;10.40;75.89;101736.41;5098498;28;20059;-61
2021/10/08 01:41:04;;;;;;;196.17;25.47;;;;;;;10.31;75.67;101739.78;5113069;28;20453;-62
2021/10/08 01:43:32;;;;;;;71.85;17.42;;;;;;;10.26;75.90;101734.16;5113584;28;20055;-62
2021/10/08 01:45:59;;;;;;;49.88;14.93;;;;;;;10.22;76.17;101735.84;5113457;28;20052;-62
2021/10/08 01:48:27;;;;;;;59.42;13.90;;;;;;;10.24;76.02;101732.78;5113695;28;20059;-61
2021/10/08 01:50:54;;;;;;;127.72;19.02;;;;;;;10.23;75.77;101734.75;5113135;28;20059;-61
2021/10/08 01:53:21;;;;;;;63.60;17.27;;;;;;;10.22;75.86;101738.63;5107407;28;20372;-61
2021/10/08 01:55:51;;;;;;;65.60;13.90;;;;;;;10.24;75.80;101736.41;5093725;28;20497;-62
2021/10/08 01:58:19;;;;;;;40.17;12.93;;;;;;;10.23;75.74;101736.69;5112738;28;20054;-62
2021/10/08 02:00:47;;;;;;;36.75;13.48;;;;;;;10.18;75.48;101739.47;5113134;28;20059;-62
2021/10/08 02:03:14;;;;;;;35.50;12.68;;;;;;;10.08;75.22;101741.16;5113284;28;20482;-62
2021/10/08 02:05:42;;;;;;;39.60;13.13;;;;;;;10.09;75.40;101740.03;5113510;28;20390;-61
2021/10/08 02:08:09;;;;;;;40.40;13.25;;;;;;;10.06;75.54;101737.81;5113174;28;20056;-61
2021/10/08 02:10:37;;;;;;;50.28;13.70;;;;;;;10.09;75.54;101739.22;5112863;28;20063;-61
2021/10/08 02:13:06;;;;;;;39.85;13.07;;;;;;;10.03;75.70;101741.16;5112524;28;20421;-61
2021/10/08 02:15:33;;;;;;;98.85;15.80;;;;;;;10.04;75.76;101733.66;5112758;28;20051;-61
2021/10/08 02:18:00;;;;;;;25.05;11.43;;;;;;;10.00;75.67;101744.50;5112676;28;20078;-60
2021/10/08 02:20:28;;;;;;;103.40;16.63;;;;;;;10.02;75.46;101733.94;5112933;28;20067;-61
2021/10/08 02:22:55;;;;;;;39.47;13.30;;;;;;;9.98;75.52;101738.38;5112960;28;20055;-62
2021/10/08 02:25:23;;;;;;;98.97;16.50;;;;;;;10.00;75.67;101736.16;5095385;28;20406;-62
2021/10/08 02:27:52;;;;;;;38.03;12.38;;;;;;;9.96;75.64;101735.88;5092448;28;20074;-61
2021/10/08 02:30:24;;;;;;;59.97;14.07;;;;;;;9.97;75.40;101731.13;5092443;28;20052;-62
2021/10/08 02:32:51;;;;;;;176.90;19.20;;;;;;;9.98;75.56;101730.03;5092525;28;20470;-62
2021/10/08 02:35:18;;;;;;;72.88;15.23;;;;;;;10.03;75.70;101730.03;5092065;28;20059;-62
2021/10/08 02:37:46;;;;;;;27.50;12.25;;;;;;;10.03;75.88;101729.19;5092189;28;20060;-62
2021/10/08 02:40:13;;;;;;;44.38;14.02;;;;;;;10.00;75.60;101727.81;5111590;28;20055;-62
2021/10/08 02:42:41;;;;;;;43.17;14.43;;;;;;;10.03;75.63;101727.22;5113042;28;20067;-61
2021/10/08 02:45:09;;;;;;;53.30;13.73;;;;;;;10.02;75.48;101731.16;5113018;28;20063;-61
2021/10/08 02:47:39;;;;;;;104.43;17.80;;;;;;;9.98;75.19;101726.44;5112775;28;20048;-62
2021/10/08 02:50:10;;;;;;;68.45;14.88;;;;;;;9.91;75.16;101732.25;5113012;28;20602;-61
2021/10/08 02:52:38;;;;;;;71.55;14.50;;;;;;;9.87;75.40;101726.44;5115412;28;20059;-61
2021/10/08 02:55:09;;;;;;;107.18;17.05;;;;;;;9.83;75.40;101732.84;5115887;28;20509;-62
2021/10/08 02:57:39;;;;;;;58.67;13.73;;;;;;;9.80;75.81;101736.97;5117689;28;20492;-60
2021/10/08 03:00:10;;;;;;;76.18;14.45;;;;;;;9.80;75.83;101733.38;5117021;28;20055;-60
2021/10/08 03:02:39;;;;;;;80.88;14.52;;;;;;;9.81;75.40;101737.84;5116839;28;20063;-60
2021/10/08 03:05:07;;;;;;;63.20;14.27;;;;;;;9.77;75.96;101736.72;5116779;28;20047;-61
2021/10/08 03:07:35;;;;;;;77.97;15.03;;;;;;;9.75;75.91;101740.59;5115504;28;20398;-61
2021/10/08 03:10:03;;;;;;;95.88;16.73;;;;;;;9.77;76.21;101733.94;5096597;28;20063;-61
2021/10/08 03:12:31;;;;;;;64.43;14.45;;;;;;;9.72;76.15;101731.97;5096716;28;20060;-61
2021/10/08 03:15:01;;;;;;;54.28;12.75;;;;;;;9.69;76.52;101736.16;5096015;28;20048;-61
2021/10/08 03:17:28;;;;;;;;;;;;;;;9.63;77.31;101730.88;5096868;28;20059;-59
2021/10/08 03:19:58;;;;;;;73.97;15.77;;;;;;;9.66;76.59;101730.28;5096526;28;19919;-61
2021/10/08 03:22:25;;;;;;;66.60;14.18;;;;;;;9.58;76.18;101725.31;5096783;28;20070;-61
2021/10/08 03:24:52;;;;;;;96.85;15.98;;;;;;;9.52;76.32;101730.03;5106067;28;20048;-60
2021/10/08 03:27:20;;;;;;;143.77;17.58;;;;;;;9.42;76.74;101732.78;5096566;28;20059;-60
2021/10/08 03:29:47;;;;;;;74.13;14.45;;;;;;;9.48;76.31;101735.31;5095938;28;20052;-60
2021/10/08 03:32:15;;;;;;;148.80;20.92;;;;;;;9.43;75.99;101728.88;5095460;28;20060;-60
2021/10/08 03:34:42;;;;;;;120.18;16.23;;;;;;;9.43;76.39;101731.66;5095869;28;20056;-60
2021/10/08 03:37:13;;;;;;;136.57;17.35;;;;;;;9.28;76.27;101738.91;5095967;28;20052;-60
2021/10/08 03:39:44;;;;;;;72.32;13.88;;;;;;;9.28;76.57;101738.91;5095901;28;20390;-60
2021/10/08 03:42:14;;;;;;;75.68;13.38;;;;;;;9.29;76.60;101739.72;5095619;28;20060;-60
2021/10/08 03:44:45;;;;;;;66.97;12.65;;;;;;;9.27;76.55;101728.88;5096055;28;20055;-60
2021/10/08 03:47:15;;;;;;;98.50;14.65;;;;;;;9.23;76.60;101744.44;5095553;28;20067;-60
2021/10/08 03:49:43;;;;;;;325.55;32.92;;;;;;;9.25;76.07;101736.66;5095699;28;20501;-60
2021/10/08 03:52:12;;;;;;;128.98;14.27;;;;;;;9.27;76.36;101739.16;5095511;28;20517;-61
2021/10/08 03:54:39;;;;;;;91.28;14.23;;;;;;;9.22;76.35;101747.47;5095897;28;20056;-61
2021/10/08 03:57:07;;;;;;;45.33;10.57;;;;;;;9.21;76.04;101743.03;5095925;28;20067;-60
2021/10/08 03:59:34;;;;;;;61.35;12.50;;;;;;;9.17;75.83;101745.50;5096034;28;20052;-62
2021/10/08 04:02:02;;;;;;;68.13;12.38;;;;;;;9.13;76.09;101744.38;5095604;28;20056;-62
2021/10/08 04:04:29;;;;;;;80.72;11.35;;;;;;;9.08;75.89;101748.00;5095576;28;20059;-62
2021/10/08 04:06:56;;;;;;;105.10;12.52;;;;;;;9.17;75.57;101751.06;5095601;28;20052;-61
2021/10/08 04:09:25;;;;;;;82.97;11.10;;;;;;;9.11;75.85;101744.69;5111311;28;20062;-61
2021/10/08 04:11:52;;;;;;;69.60;11.00;;;;;;;9.08;75.27;101753.56;5116054;28;20055;-62
2021/10/08 04:14:20;;;;;;;59.80;10.35;;;;;;;9.05;75.67;101759.69;5116072;28;20060;-62
2021/10/08 04:16:47;;;;;;;50.95;10.02;;;;;;;9.08;75.75;101752.72;5115879;28;20051;-61
2021/10/08 04:19:15;;;;;;;50.85;9.38;;;;;;;9.04;75.17;101757.16;5115537;28;20051;-61
2021/10/08 04:21:42;;;;;;;57.97;9.65;;;;;;;9.02;75.74;101759.38;5115515;28;20058;-61
2021/10/08 04:24:09;;;;;;;47.60;9.20;;;;;;;9.02;75.22;101762.97;5105066;28;20059;-61
2021/10/08 04:26:40;;;;;;;67.68;10.40;;;;;;;9.01;75.16;101763.25;5095194;28;20433;-62
2021/10/08 04:29:07;;;;;;;36.58;9.20;;;;;;;8.85;75.75;101771.53;5095263;28;20063;-61
2021/10/08 04:31:34;;;;;;;43.50;11.07;;;;;;;8.72;75.55;101769.25;5095273;28;20056;-62
2021/10/08 04:34:02;;;;;;;56.85;11.13;;;;;;;8.56;75.33;101773.03;5094605;28;20056;-62
2021/10/08 04:36:30;;;;;;;66.05;12.45;;;;;;;8.57;75.60;101778.34;5095484;28;20056;-61
2021/10/08 04:38:57;;;;;;;37.63;10.43;;;;;;;8.53;74.86;101771.66;5094783;28;20056;-61
2021/10/08 04:41:25;;;;;;;41.17;10.25;;;;;;;8.52;75.28;101775.53;5113661;28;20686;-62
2021/10/08 04:43:54;;;;;;;45.35;10.20;;;;;;;8.45;74.81;101774.94;5115301;28;20059;-62
2021/10/08 04:46:21;;;;;;;48.80;10.25;;;;;;;8.44;75.11;101768.56;5115109;28;20063;-61
2021/10/08 04:48:48;;;;;;;26.77;9.30;;;;;;;8.44;75.31;101774.09;5115276;28;20387;-61
2021/10/08 04:51:16;;;;;;;21.17;8.85;;;;;;;8.39;74.54;101774.03;5115189;28;20062;-60
2021/10/08 04:53:43;;;;;;;23.05;8.18;;;;;;;8.44;74.55;101776.03;5111111;28;20494;-61
2021/10/08 04:56:13;;;;;;;16.95;7.38;;;;;;;8.43;74.51;101775.19;5094810;28;20471;-62
2021/10/08 04:58:40;;;;;;;;;;;;;;;8.38;74.09;101777.06;5095330;28;20067;-62
2021/10/08 05:01:09;;;;;;;17.90;7.97;;;;;;;8.36;74.79;101780.13;5094316;28;19920;-61
2021/10/08 05:03:36;;;;;;;18.52;7.53;;;;;;;8.36;74.87;101785.69;5094422;28;20060;-62
2021/10/08 05:06:06;;;;;;;16.95;8.07;;;;;;;8.31;74.78;101778.13;5093986;28;20056;-61
2021/10/08 05:08:34;;;;;;;12.82;7.47;;;;;;;8.27;74.35;101779.78;5095105;28;20060;-61
2021/10/08 05:11:01;;;;;;;16.02;7.63;;;;;;;8.22;75.21;101773.34;5094121;28;20510;-61
2021/10/08 05:13:28;;;;;;;31.02;11.25;;;;;;;8.13;73.79;101776.63;5111501;28;20398;-61
2021/10/08 05:15:56;;;;;;;14.10;7.40;;;;;;;8.12;75.37;101777.72;5114036;28;20043;-62
2021/10/08 05:18:24;;;;;;;18.40;8.05;;;;;;;8.13;74.51;101776.63;5104367;28;20059;-60
2021/10/08 05:20:52;;;;;;;13.10;7.85;;;;;;;8.19;74.86;101771.09;5097669;28;20064;-62
2021/10/08 05:23:20;;;;;;;16.77;8.10;;;;;;;8.25;75.53;101779.22;5100955;28;20363;-62
2021/10/08 05:25:47;;;;;;;15.27;8.50;;;;;;;8.26;74.88;101782.81;5100541;28;20051;-62
2021/10/08 05:28:15;;;;;;;18.85;8.80;;;;;;;8.26;74.32;101777.28;5097102;28;20056;-62
2021/10/08 05:30:42;;;;;;;13.75;8.07;;;;;;;8.28;73.92;101780.63;5108255;28;20417;-62
2021/10/08 05:33:09;;;;;;;25.67;8.00;;;;;;;8.29;74.41;101780.34;5112983;28;20063;-62
2021/10/08 05:35:38;;;;;;;14.05;7.47;;;;;;;8.34;74.38;101782.31;5099344;28;20047;-61
2021/10/08 05:38:06;;;;;;;9.02;6.78;;;;;;;8.35;73.88;101784.00;5099574;28;20051;-61
2021/10/08 05:40:33;;;;;;;31.95;9.23;;;;;;;8.32;74.85;101782.59;5106065;28;20064;-60
2021/10/08 05:43:01;;;;;;;23.67;8.88;;;;;;;8.41;74.93;101782.94;5094598;28;20055;-61
2021/10/08 05:45:29;;;;;;;17.10;8.48;;;;;;;8.42;74.60;101786.56;5097542;28;20067;-62
2021/10/08 05:47:56;;;;;;;37.95;9.32;;;;;;;8.43;74.85;101785.47;5101242;28;20059;-61
2021/10/08 05:50:24;;;;;;;26.52;8.52;;;;;;;8.42;74.96;101783.78;5112264;28;20066;-62
2021/10/08 05:52:52;;;;;;;58.45;9.63;;;;;;;8.46;74.56;101787.69;5104135;28;20060;-61
2021/10/08 05:55:23;;;;;;;24.13;8.02;;;;;;;8.47;74.06;101784.66;5113483;28;20425;-61
2021/10/08 05:57:50;;;;;;;22.67;7.70;;;;;;;8.46;74.29;101794.09;5099892;28;20047;-61
2021/10/08 06:00:18;;;;;;;85.93;10.63;;;;;;;8.50;74.87;101786.91;5096722;28;20051;-61
2021/10/08 06:02:45;;;;;;;70.38;10.00;;;;;;;8.54;74.43;101799.13;5096961;28;20074;-60
2021/10/08 06:05:12;;;;;;;54.42;8.85;;;;;;;8.61;74.09;101793.38;5095288;28;20048;-61
2021/10/08 06:07:40;;;;;;;30.58;7.22;;;;;;;8.60;74.23;101782.53;5112273;28;20051;-61
2021/10/08 06:10:09;;;;;;;39.63;8.75;;;;;;;8.68;74.80;101782.00;5113032;28;20414;-64
2021/10/08 06:12:39;;;;;;;24.27;6.50;;;;;;;8.58;74.12;101785.56;5097171;28;20060;-64
2021/10/08 06:15:08;;;;;;;57.67;7.93;;;;;;;8.74;73.19;101786.50;5093456;28;20433;-64
2021/10/08 06:17:35;;;;;;;37.38;7.43;;;;;;;8.81;73.18;101786.25;5093112;28;20500;-64
2021/10/08 06:20:03;;;;;;;46.03;8.05;;;;;;;8.89;73.20;101788.50;5101754;28;20051;-61
2021/10/08 06:22:31;;;;;;;47.13;9.00;;;;;;;8.92;72.44;101786.03;5100728;28;20063;-61
2021/10/08 06:24:58;;;;;;;19.52;6.82;;;;;;;9.00;73.21;101794.94;5096389;28;20051;-62
2021/10/08 06:27:27;;;;;;;35.53;7.80;;;;;;;9.01;73.16;101797.47;5113301;28;20047;-62
2021/10/08 06:29:54;;;;;;;32.30;7.35;;;;;;;9.10;73.20;101806.09;5104839;28;20371;-61
2021/10/08 06:32:21;;;;;;;31.67;7.28;;;;;;;9.13;72.83;101805.53;5099588;28;20056;-60
2021/10/08 06:34:49;;;;;;;19.95;6.30;;;;;;;9.31;72.39;101807.84;5112045;28;20066;-61
2021/10/08 06:37:16;;;;;;;27.25;7.30;;;;;;;9.49;72.22;101808.44;5104740;28;20048;-62
2021/10/08 06:39:44;;;;;;;17.17;6.40;;;;;;;9.57;71.49;101807.91;5092826;28;20052;-59
2021/10/08 06:42:11;;;;;;;102.80;10.20;;;;;;;9.64;71.09;101814.06;5092990;28;20064;-60
2021/10/08 06:44:40;;;;;;;26.73;6.57;;;;;;;9.76;71.34;101808.22;5105220;28;20399;-62
2021/10/08 06:47:07;;;;;;;30.00;6.20;;;;;;;9.90;70.61;101805.75;5098018;28;20040;-62
2021/10/08 06:49:35;;;;;;;23.45;6.10;;;;;;;9.95;69.94;101812.16;5099757;28;20062;-61
2021/10/08 06:52:02;;;;;;;22.52;6.15;;;;;;;10.14;70.36;101808.78;5112071;28;20052;-61
2021/10/08 06:54:30;;;;;;;16.48;6.28;;;;;;;10.35;70.04;101815.22;5112176;28;20047;-62
2021/10/08 06:56:57;;;;;;;10.35;5.63;;;;;;;10.52;69.46;101801.00;5111152;28;20051;-61
2021/10/08 06:59:24;;;;;;;29.67;6.75;;;;;;;10.66;68.76;101807.66;5107906;28;20055;-61
2021/10/08 07:01:54;;;;;;;18.52;5.28;;;;;;;10.79;67.79;101809.00;5096572;28;20063;-61
2021/10/08 07:04:21;;;;;;;20.88;6.60;;;;;;;10.93;67.47;101815.66;5092454;28;20060;-61
2021/10/08 07:06:49;;;;;;;24.35;5.97;;;;;;;11.12;66.96;101807.50;5091713;28;20059;-62
2021/10/08 07:09:16;;;;;;;12.65;5.60;;;;;;;11.31;66.42;101810.47;5091272;28;20052;-61
2021/10/08 07:11:43;;;;;;;13.05;5.97;;;;;;;11.42;65.83;101813.22;5109496;28;20056;-61
2021/10/08 07:14:11;;;;;;;12.40;5.05;;;;;;;11.69;64.83;101821.97;5108348;28;20063;-61
2021/10/08 07:16:38;;;;;;;15.65;5.47;;;;;;;12.02;64.32;101818.75;5104234;28;20055;-60
2021/10/08 07:19:10;;;;;;;13.98;5.07;;;;;;;12.23;63.79;101816.63;5095851;28;20055;-60
2021/10/08 07:21:39;;;;;;;7.82;5.30;;;;;;;12.38;63.45;101813.66;5097659;28;20497;-61
2021/10/08 07:24:06;;;;;;;9.45;5.00;;;;;;;12.65;62.20;101809.50;5103315;28;20052;-61
2021/10/08 07:26:34;;;;;;;6.63;4.40;;;;;;;12.89;61.59;101815.09;5094273;28;20067;-61
2021/10/08 07:29:01;;;;;;;8.00;4.78;;;;;;;13.19;60.43;101811.13;5096130;28;20059;-61
2021/10/08 07:31:29;;;;;;;11.70;5.28;;;;;;;13.49;59.93;101818.28;5090275;28;20082;-61
2021/10/08 07:33:56;;;;;;;6.38;4.65;;;;;;;13.79;59.44;101821.78;5095611;28;20063;-61
2021/10/08 07:36:25;;;;;;;11.30;4.50;;;;;;;14.05;57.90;101825.03;5109262;28;20068;-61
2021/10/08 07:38:52;;;;;;;7.63;5.70;;;;;;;14.09;57.51;101812.06;5096110;28;20067;-61
2021/10/08 07:41:19;;;;;;;11.07;7.20;;;;;;;14.28;56.75;101811.19;5111968;28;20052;-61
2021/10/08 07:43:47;;;;;;;9.90;7.18;;;;;;;14.30;56.00;101812.56;5098964;28;20371;-61
2021/10/08 07:46:14;;;;;;;10.75;7.75;;;;;;;14.61;55.22;101824.09;5094546;28;20052;-61
2021/10/08 07:48:42;;;;;;;8.65;7.20;;;;;;;15.08;53.82;101814.78;5100648;28;20056;-61
2021/10/08 07:51:10;;;;;;;14.10;8.65;;;;;;;15.63;51.69;101817.50;5112299;28;20052;-61
2021/10/08 07:53:39;;;;;;;10.52;9.00;;;;;;;16.35;49.99;101815.78;5096974;28;20818;-59
2021/10/08 07:56:06;;;;;;;8.98;5.60;;;;;;;16.91;49.09;101811.47;5093380;28;20063;-62
2021/10/08 07:58:36;;;;;;;10.60;5.45;;;;;;;17.20;47.58;101813.75;5106640;28;20063;-61
2021/10/08 08:01:05;;;;;;;8.25;6.85;;;;;;;17.72;46.27;101815.81;5109246;28;20044;-61
2021/10/08 08:03:33;;;;;;;7.78;6.55;;;;;;;18.27;45.08;101817.16;5099766;28;20397;-62
2021/10/08 08:06:01;;;;;;;8.63;7.47;;;;;;;19.00;43.38;101817.16;5099085;28;20060;-61
2021/10/08 08:08:28;;;;;;;7.88;6.43;;;;;;;19.67;41.82;101806.09;5093189;28;20063;-61
2021/10/08 08:10:57;;;;;;;9.40;6.82;;;;;;;20.45;40.35;101813.06;5094238;28;20056;-62
2021/10/08 08:13:25;;;;;;;9.88;7.50;;;;;;;21.23;38.51;101809.31;5099614;28;20430;-62
2021/10/08 08:15:52;;;;;;;8.27;6.75;;;;;;;21.83;37.54;101806.75;5108844;28;20062;-61
2021/10/08 08:18:22;;;;;;;6.75;6.05;;;;;;;22.12;36.84;101810.44;5092273;28;20063;-62
2021/10/08 08:20:49;;;;;;;6.32;5.72;;;;;;;22.87;35.04;101806.03;5098791;28;20059;-61
2021/10/08 08:23:18;;;;;;;5.82;5.20;;;;;;;23.76;33.67;101813.06;5099766;28;20078;-61
2021/10/08 08:25:45;;;;;;;6.75;6.05;;;;;;;24.86;31.55;101795.72;5102275;28;20494;-62
2021/10/08 08:28:14;;;;;;;6.38;5.47;;;;;;;26.62;28.89;101792.50;5101823;28;20059;-61
2021/10/08 08:30:44;;;;;;;5.63;5.13;;;;;;;27.93;26.99;101794.72;5099025;28;20066;-60
2021/10/08 08:33:12;;;;;;;5.72;5.07;;;;;;;28.79;25.56;101791.28;5108309;28;20058;-62
2021/10/08 08:35:40;;;;;;;5.32;4.93;;;;;;;29.84;24.65;101789.09;5092729;28;20056;-62
2021/10/08 08:38:07;;;;;;;5.50;4.88;;;;;;;30.90;23.14;101783.97;5093547;28;20428;-62
2021/10/08 08:40:35;;;;;;;5.53;5.03;;;;;;;31.07;23.10;101782.19;5103413;28;20071;-62
2021/10/08 08:43:04;;;;;;;4.83;4.23;;;;;;;31.71;21.88;101786.50;5093479;28;20520;-60
2021/10/08 08:45:33;;;;;;;5.45;4.50;;;;;;;32.76;21.08;101780.13;5101106;28;20501;-62
2021/10/08 08:48:03;;;;;;;5.15;4.70;;;;;;;33.30;20.21;101773.41;5106740;28;20054;-62
2021/10/08 08:50:33;;;;;;;5.78;4.15;;;;;;;34.13;19.67;101778.41;5103622;28;20663;-60
2021/10/08 08:53:01;;;;;;;4.77;4.27;;;;;;;34.08;19.92;101784.66;5042137;28;1424387;-62
2021/10/08 08:55:28;;;;;;;5.25;4.75;;;;;;;34.94;18.95;101777.69;5094208;28;20470;-60
2021/10/08 08:57:56;;;;;;;4.93;4.15;;;;;;;35.44;17.79;101772.66;5094463;28;20048;-62
2021/10/08 09:00:24;;;;;;;6.68;4.72;;;;;;;35.90;17.84;101772.59;5094045;28;20490;-62
2021/10/08 09:02:58;;;;;;;4.72;4.32;;;;;;;35.94;17.58;101777.00;5102795;28;20055;-62
2021/10/08 09:05:30;;;;;;;4.93;4.43;;;;;;;36.58;16.71;101773.38;5107875;28;20056;-62
2021/10/08 09:07:59;;;;;;;4.60;4.20;;;;;;;36.58;17.20;101780.00;5110868;28;20051;-61
2021/10/08 09:10:31;;;;;;;4.18;3.88;;;;;;;37.31;16.66;101772.59;5095832;28;20514;-62
2021/10/08 09:12:59;;;;;;;4.45;4.05;;;;;;;37.04;16.68;101771.00;5093805;28;20067;-61
2021/10/08 09:15:28;;;;;;;5.20;4.38;;;;;;;37.15;16.84;101765.66;5101604;28;20048;-60
2021/10/08 09:18:10;;;;;;;4.53;4.15;;;;;;;37.54;15.98;101771.31;5107865;28;20051;-59
2021/10/08 09:20:38;;;;;;;4.50;4.10;;;;;;;37.90;16.01;101764.97;5109965;28;20410;-61
2021/10/08 09:23:06;;;;;;;4.43;3.72;;;;;;;38.48;16.16;101766.44;5102792;28;20056;-61
2021/10/08 09:25:37;;;;;;;4.32;3.90;;;;;;;37.21;17.47;101765.06;5108489;28;20071;-61
2021/10/08 09:28:05;;;;;;;4.15;3.75;;;;;;;37.21;17.29;101768.78;5112608;28;20070;-62
2021/10/08 09:30:38;;;;;;;4.53;3.67;;;;;;;38.56;16.09;101764.88;5101684;28;20048;-61
2021/10/08 09:33:08;;;;;;;5.03;3.80;;;;;;;39.21;15.48;101758.38;5114169;28;20058;-62
2021/10/08 09:35:38;;;;;;;4.80;3.78;;;;;;;39.74;15.01;101760.97;5103853;28;20512;-61
2021/10/08 09:38:12;;;;;;;4.20;3.80;;;;;;;39.95;15.29;101759.97;5111189;28;20513;-62
2021/10/08 09:40:45;;;;;;;4.43;4.07;;;;;;;39.70;15.46;101766.16;5093483;28;20055;-62
2021/10/08 09:43:14;;;;;;;6.40;4.20;;;;;;;40.59;14.72;101758.13;5093218;28;20502;-61
2021/10/08 09:45:47;;;;;;;5.82;4.65;;;;;;;40.81;14.50;101757.06;5096436;28;20071;-61
2021/10/08 09:48:14;;;;;;;4.93;4.10;;;;;;;41.46;14.25;101755.28;5106913;28;20048;-60
2021/10/08 09:51:04;;;;;;;5.90;4.47;;;;;;;41.71;13.68;101750.19;5109108;28;20047;-61
2021/10/08 09:53:37;;;;;;;5.38;4.18;;;;;;;42.07;13.84;101757.78;5107981;28;20069;-60
2021/10/08 09:56:27;;;;;;;4.63;3.80;;;;;;;42.30;14.15;101747.25;5096928;28;20517;-61
2021/10/08 09:58:55;;;;;;;5.75;5.15;;;;;;;42.85;13.13;101748.63;5101158;28;20477;-61
2021/10/08 10:01:26;;;;;;;6.20;4.60;;;;;;;42.91;13.14;101751.66;5104853;28;20052;-62
2021/10/08 10:03:54;;;;;;;5.68;4.47;;;;;;;42.84;13.10;101747.03;5099285;28;20051;-61
2021/10/08 10:06:23;;;;;;;5.23;4.70;;;;;;;42.92;13.42;101747.38;5105395;28;20505;-61
2021/10/08 10:08:51;;;;;;;5.18;4.60;;;;;;;43.16;13.31;101742.09;5098545;28;20052;-61
2021/10/08 10:11:19;;;;;;;;;;;;;;;43.62;12.68;101742.63;5094999;28;20059;-62
2021/10/08 10:13:49;;;;;;;6.07;5.22;;;;;;;43.61;12.33;101756.50;5101570;28;19920;-62
2021/10/08 10:16:18;;;;;;;5.80;5.30;;;;;;;44.34;11.79;101750.53;5105878;28;20066;-61
2021/10/08 10:18:51;;;;;;;6.88;5.13;;;;;;;43.50;12.43;101741.72;5092567;28;20051;-61
2021/10/08 10:21:20;;;;;;;6.00;5.40;;;;;;;44.52;12.03;101731.69;5102508;28;20047;-61
2021/10/08 10:23:52;;;;;;;5.82;4.85;;;;;;;44.61;12.04;101733.63;5097366;28;20498;-59
2021/10/08 10:26:20;;;;;;;7.13;5.50;;;;;;;44.73;11.85;101741.97;5100573;28;20051;-61
2021/10/08 10:28:47;;;;;;;;;;;;;;;44.70;12.27;101734.19;5099801;28;20055;-61
2021/10/08 10:31:15;;;;;;;6.95;5.22;;;;;;;44.83;12.23;101738.81;5092084;28;19928;-61
2021/10/08 10:33:43;;;;;;;6.35;5.03;;;;;;;45.11;11.80;101733.88;5099753;28;20063;-60
2021/10/08 10:36:22;;;;;;;5.28;4.82;;;;;;;45.56;11.45;101736.16;5092506;28;20063;-61
2021/10/08 10:38:51;;;;;;;6.35;5.00;;;;;;;45.87;11.45;101731.41;5097563;28;20056;-61
2021/10/08 10:41:24;;;;;;;4.93;4.47;;;;;;;46.27;11.01;101727.13;5105845;28;20462;-61
2021/10/08 10:44:14;;;;;;;6.47;4.00;;;;;;;46.60;10.48;101722.50;5099503;28;20066;-61
2021/10/08 10:46:46;;;;;;;4.45;3.90;;;;;;;46.03;10.45;101718.03;5110490;28;20060;-61
2021/10/08 10:49:29;;;;;;;4.05;3.65;;;;;;;45.78;10.83;101726.56;5107403;28;20052;-61
2021/10/08 10:52:27;;;;;;;4.05;3.65;;;;;;;46.48;10.77;101724.69;5107239;28;20048;-61
2021/10/08 10:55:03;;;;;;;;;;;;;;;45.86;10.32;101718.00;5108977;28;20055;-61
2021/10/08 10:57:56;;;;;;;3.97;3.17;;;;;;;46.01;11.08;101714.78;5103604;28;19931;-61
2021/10/08 11:00:29;;;;;;;4.20;3.38;;;;;;;46.35;11.04;101710.50;5099841;28;20055;-61
2021/10/08 11:03:02;;;;;;;3.85;3.50;;;;;;;45.85;10.58;101693.66;5096686;28;20063;-60
2021/10/08 11:05:32;;;;;;;3.53;2.90;;;;;;;45.68;10.80;101708.38;5101393;28;20059;-61
2021/10/08 11:08:08;;;;;;;3.75;3.40;;;;;;;43.62;11.97;101717.03;5098765;28;20071;-61
2021/10/08 11:10:40;;;;;;;5.10;3.53;;;;;;;42.28;12.79;101711.00;5103073;28;20062;-61
2021/10/08 11:13:24;;;;;;;4.78;3.58;;;;;;;42.19;13.44;101706.06;5102794;28;20055;-61
2021/10/08 11:15:57;;;;;;;4.18;3.78;;;;;;;42.10;13.01;101697.41;5109535;28;20063;-60
2021/10/08 11:18:42;;;;;;;4.07;3.10;;;;;;;42.56;13.61;101688.00;5110034;28;20469;-61
2021/10/08 11:21:12;;;;;;;5.03;3.40;;;;;;;42.42;13.33;101703.47;5098377;28;20071;-61
2021/10/08 11:23:41;;;;;;;3.85;2.97;;;;;;;42.92;12.86;101688.75;5105006;28;20054;-61
2021/10/08 11:26:17;;;;;;;4.60;3.40;;;;;;;42.42;13.21;101688.81;5095585;28;20052;-61
2021/10/08 11:28:46;;;;;;;4.38;3.03;;;;;;;43.69;13.08;101687.22;5097069;28;20056;-61